sensor_id;sensor_type;location;lat;lon;timestamp;P1;durP1;ratioP1;P2;durP2;ratioP2
41436;SDS011;27178;49.460;10.850;2023-05-14T00:00:39;6.63;;;6.03;;
41436;SDS011;27178;49.460;10.850;2023-05-14T00:03:07;5.90;;;5.40;;
41436;SDS011;27178;49.460;10.850;2023-05-14T00:05:36;6.23;;;5.73;;
41436;SDS011;27178;49.460;10.850;2023-05-14T00:08:04;6.22;;;5.55;;
41436;SDS011;27178;49.460;10.850;2023-05-14T00:10:34;6.33;;;5.77;;
41436;SDS011;27178;49.460;10.850;2023-05-14T00:13:02;5.60;;;5.15;;
41436;SDS011;27178;49.460;10.850;2023-05-14T00:15:30;6.03;;;5.43;;
41436;SDS011;27178;49.460;10.850;2023-05-14T00:17:59;6.65;;;6.05;;
41436;SDS011;27178;49.460;10.850;2023-05-14T00:20:29;6.50;;;5.90;;
41436;SDS011;27178;49.460;10.850;2023-05-14T00:22:57;6.18;;;5.68;;
41436;SDS011;27178;49.460;10.850;2023-05-14T00:25:26;5.75;;;5.30;;
41436;SDS011;27178;49.460;10.850;2023-05-14T00:27:55;5.88;;;5.38;;
41436;SDS011;27178;49.460;10.850;2023-05-14T00:30:23;5.67;;;5.17;;
41436;SDS011;27178;49.460;10.850;2023-05-14T00:32:51;6.90;;;6.30;;
41436;SDS011;27178;49.460;10.850;2023-05-14T00:35:20;7.15;;;5.65;;
41436;SDS011;27178;49.460;10.850;2023-05-14T00:37:49;6.43;;;5.93;;
41436;SDS011;27178;49.460;10.850;2023-05-14T00:40:17;6.30;;;5.80;;
41436;SDS011;27178;49.460;10.850;2023-05-14T00:42:46;6.03;;;5.57;;
41436;SDS011;27178;49.460;10.850;2023-05-14T00:45:16;6.75;;;6.15;;
41436;SDS011;27178;49.460;10.850;2023-05-14T00:47:45;6.23;;;5.73;;
41436;SDS011;27178;49.460;10.850;2023-05-14T00:50:14;6.18;;;5.68;;
41436;SDS011;27178;49.460;10.850;2023-05-14T00:52:42;5.93;;;5.47;;
41436;SDS011;27178;49.460;10.850;2023-05-14T00:55:11;6.70;;;6.10;;
41436;SDS011;27178;49.460;10.850;2023-05-14T00:57:43;6.60;;;6.03;;
41436;SDS011;27178;49.460;10.850;2023-05-14T01:00:11;6.40;;;5.90;;
41436;SDS011;27178;49.460;10.850;2023-05-14T01:02:42;5.80;;;5.30;;
41436;SDS011;27178;49.460;10.850;2023-05-14T01:05:10;6.00;;;5.47;;
41436;SDS011;27178;49.460;10.850;2023-05-14T01:07:43;5.87;;;5.37;;
41436;SDS011;27178;49.460;10.850;2023-05-14T01:10:23;5.60;;;5.20;;
41436;SDS011;27178;49.460;10.850;2023-05-14T01:12:58;6.38;;;5.40;;
41436;SDS011;27178;49.460;10.850;2023-05-14T01:15:35;6.25;;;5.75;;
41436;SDS011;27178;49.460;10.850;2023-05-14T01:18:08;6.25;;;5.75;;
41436;SDS011;27178;49.460;10.850;2023-05-14T01:20:40;6.15;;;5.65;;
41436;SDS011;27178;49.460;10.850;2023-05-14T01:23:11;5.68;;;5.22;;
41436;SDS011;27178;49.460;10.850;2023-05-14T01:25:40;6.30;;;5.80;;
41436;SDS011;27178;49.460;10.850;2023-05-14T01:28:10;5.85;;;5.35;;
41436;SDS011;27178;49.460;10.850;2023-05-14T01:30:45;6.47;;;5.97;;
41436;SDS011;27178;49.460;10.850;2023-05-14T01:33:18;6.50;;;6.00;;
41436;SDS011;27178;49.460;10.850;2023-05-14T01:35:48;6.97;;;6.25;;
41436;SDS011;27178;49.460;10.850;2023-05-14T01:38:20;6.15;;;5.65;;
41436;SDS011;27178;49.460;10.850;2023-05-14T01:40:50;6.28;;;5.75;;
41436;SDS011;27178;49.460;10.850;2023-05-14T01:43:20;6.70;;;6.18;;
41436;SDS011;27178;49.460;10.850;2023-05-14T01:45:50;6.93;;;6.32;;
41436;SDS011;27178;49.460;10.850;2023-05-14T01:48:20;6.90;;;6.30;;
41436;SDS011;27178;49.460;10.850;2023-05-14T01:50:49;6.50;;;5.90;;
41436;SDS011;27178;49.460;10.850;2023-05-14T01:53:17;6.28;;;5.78;;
41436;SDS011;27178;49.460;10.850;2023-05-14T01:55:47;6.60;;;6.10;;
41436;SDS011;27178;49.460;10.850;2023-05-14T01:58:15;7.27;;;6.67;;
41436;SDS011;27178;49.460;10.850;2023-05-14T02:00:43;6.40;;;5.90;;
41436;SDS011;27178;49.460;10.850;2023-05-14T02:03:11;6.93;;;6.33;;
41436;SDS011;27178;49.460;10.850;2023-05-14T02:05:40;7.43;;;6.82;;
41436;SDS011;27178;49.460;10.850;2023-05-14T02:08:08;6.47;;;5.97;;
41436;SDS011;27178;49.460;10.850;2023-05-14T02:10:37;7.38;;;6.78;;
41436;SDS011;27178;49.460;10.850;2023-05-14T02:13:07;11.65;;;6.85;;
41436;SDS011;27178;49.460;10.850;2023-05-14T02:15:35;6.63;;;5.80;;
41436;SDS011;27178;49.460;10.850;2023-05-14T02:18:04;5.63;;;5.13;;
41436;SDS011;27178;49.460;10.850;2023-05-14T02:20:33;4.85;;;4.35;;
41436;SDS011;27178;49.460;10.850;2023-05-14T02:23:02;5.53;;;5.07;;
41436;SDS011;27178;49.460;10.850;2023-05-14T02:25:30;5.15;;;4.75;;
41436;SDS011;27178;49.460;10.850;2023-05-14T02:27:58;5.50;;;5.10;;
41436;SDS011;27178;49.460;10.850;2023-05-14T02:30:28;6.13;;;5.53;;
41436;SDS011;27178;49.460;10.850;2023-05-14T02:32:57;5.70;;;5.20;;
41436;SDS011;27178;49.460;10.850;2023-05-14T02:35:25;5.80;;;5.20;;
41436;SDS011;27178;49.460;10.850;2023-05-14T02:37:54;6.18;;;5.68;;
41436;SDS011;27178;49.460;10.850;2023-05-14T02:40:22;6.05;;;5.55;;
41436;SDS011;27178;49.460;10.850;2023-05-14T02:42:51;5.25;;;4.85;;
41436;SDS011;27178;49.460;10.850;2023-05-14T02:45:20;5.75;;;5.25;;
41436;SDS011;27178;49.460;10.850;2023-05-14T02:47:49;6.13;;;5.47;;
41436;SDS011;27178;49.460;10.850;2023-05-14T02:50:17;6.20;;;5.60;;
41436;SDS011;27178;49.460;10.850;2023-05-14T02:52:47;6.22;;;5.72;;
41436;SDS011;27178;49.460;10.850;2023-05-14T02:55:15;6.60;;;6.00;;
41436;SDS011;27178;49.460;10.850;2023-05-14T02:57:43;6.47;;;5.97;;
41436;SDS011;27178;49.460;10.850;2023-05-14T03:00:12;6.40;;;5.90;;
41436;SDS011;27178;49.460;10.850;2023-05-14T03:02:41;6.43;;;5.70;;
41436;SDS011;27178;49.460;10.850;2023-05-14T03:05:11;6.65;;;5.85;;
41436;SDS011;27178;49.460;10.850;2023-05-14T03:07:40;6.30;;;5.80;;
41436;SDS011;27178;49.460;10.850;2023-05-14T03:10:08;6.83;;;6.27;;
41436;SDS011;27178;49.460;10.850;2023-05-14T03:12:37;6.32;;;5.82;;
41436;SDS011;27178;49.460;10.850;2023-05-14T03:15:06;6.88;;;6.22;;
41436;SDS011;27178;49.460;10.850;2023-05-14T03:17:36;7.07;;;6.38;;
41436;SDS011;27178;49.460;10.850;2023-05-14T03:20:05;6.40;;;5.90;;
41436;SDS011;27178;49.460;10.850;2023-05-14T03:22:35;6.22;;;5.72;;
41436;SDS011;27178;49.460;10.850;2023-05-14T03:25:04;5.85;;;5.43;;
41436;SDS011;27178;49.460;10.850;2023-05-14T03:27:33;6.55;;;5.75;;
41436;SDS011;27178;49.460;10.850;2023-05-14T03:30:01;6.30;;;5.70;;
41436;SDS011;27178;49.460;10.850;2023-05-14T03:32:29;6.78;;;6.18;;
41436;SDS011;27178;49.460;10.850;2023-05-14T03:34:58;7.00;;;6.38;;
41436;SDS011;27178;49.460;10.850;2023-05-14T03:37:26;6.93;;;6.32;;
41436;SDS011;27178;49.460;10.850;2023-05-14T03:39:56;6.65;;;6.10;;
41436;SDS011;27178;49.460;10.850;2023-05-14T03:42:24;6.72;;;6.03;;
41436;SDS011;27178;49.460;10.850;2023-05-14T03:44:53;6.40;;;5.90;;
41436;SDS011;27178;49.460;10.850;2023-05-14T03:47:22;5.43;;;5.03;;
41436;SDS011;27178;49.460;10.850;2023-05-14T03:49:51;6.60;;;6.00;;
41436;SDS011;27178;49.460;10.850;2023-05-14T03:52:19;6.70;;;6.10;;
41436;SDS011;27178;49.460;10.850;2023-05-14T03:54:47;6.45;;;5.95;;
41436;SDS011;27178;49.460;10.850;2023-05-14T03:57:17;6.88;;;6.20;;
41436;SDS011;27178;49.460;10.850;2023-05-14T03:59:45;6.13;;;5.65;;
41436;SDS011;27178;49.460;10.850;2023-05-14T04:02:13;7.05;;;6.45;;
41436;SDS011;27178;49.460;10.850;2023-05-14T04:04:42;6.40;;;5.90;;
41436;SDS011;27178;49.460;10.850;2023-05-14T04:07:10;6.80;;;6.20;;
41436;SDS011;27178;49.460;10.850;2023-05-14T04:09:38;6.68;;;6.18;;
41436;SDS011;27178;49.460;10.850;2023-05-14T04:12:07;7.40;;;6.80;;
41436;SDS011;27178;49.460;10.850;2023-05-14T04:14:37;7.82;;;5.97;;
41436;SDS011;27178;49.460;10.850;2023-05-14T04:17:05;6.95;;;6.25;;
41436;SDS011;27178;49.460;10.850;2023-05-14T04:19:33;6.93;;;6.38;;
41436;SDS011;27178;49.460;10.850;2023-05-14T04:22:02;7.00;;;6.40;;
41436;SDS011;27178;49.460;10.850;2023-05-14T04:24:30;6.47;;;5.97;;
41436;SDS011;27178;49.460;10.850;2023-05-14T04:26:59;6.20;;;5.60;;
41436;SDS011;27178;49.460;10.850;2023-05-14T04:29:28;6.53;;;6.03;;
41436;SDS011;27178;49.460;10.850;2023-05-14T04:31:58;6.50;;;6.00;;
41436;SDS011;27178;49.460;10.850;2023-05-14T04:34:26;5.97;;;5.47;;
41436;SDS011;27178;49.460;10.850;2023-05-14T04:36:55;6.03;;;5.53;;
41436;SDS011;27178;49.460;10.850;2023-05-14T04:39:24;6.95;;;6.35;;
41436;SDS011;27178;49.460;10.850;2023-05-14T04:41:52;6.70;;;6.10;;
41436;SDS011;27178;49.460;10.850;2023-05-14T04:44:20;5.97;;;5.57;;
41436;SDS011;27178;49.460;10.850;2023-05-14T04:46:49;6.50;;;6.00;;
41436;SDS011;27178;49.460;10.850;2023-05-14T04:49:18;6.18;;;5.75;;
41436;SDS011;27178;49.460;10.850;2023-05-14T04:51:47;6.47;;;5.97;;
41436;SDS011;27178;49.460;10.850;2023-05-14T04:54:15;6.65;;;6.05;;
41436;SDS011;27178;49.460;10.850;2023-05-14T04:56:43;5.93;;;5.43;;
41436;SDS011;27178;49.460;10.850;2023-05-14T04:59:13;7.88;;;6.25;;
41436;SDS011;27178;49.460;10.850;2023-05-14T05:01:42;6.07;;;5.60;;
41436;SDS011;27178;49.460;10.850;2023-05-14T05:04:11;6.03;;;5.60;;
41436;SDS011;27178;49.460;10.850;2023-05-14T05:06:41;5.97;;;5.47;;
41436;SDS011;27178;49.460;10.850;2023-05-14T05:09:09;6.40;;;5.90;;
41436;SDS011;27178;49.460;10.850;2023-05-14T05:11:38;6.38;;;5.80;;
41436;SDS011;27178;49.460;10.850;2023-05-14T05:14:06;7.40;;;6.72;;
41436;SDS011;27178;49.460;10.850;2023-05-14T05:16:34;6.45;;;5.95;;
41436;SDS011;27178;49.460;10.850;2023-05-14T05:19:03;6.68;;;5.93;;
41436;SDS011;27178;49.460;10.850;2023-05-14T05:21:32;6.40;;;5.88;;
41436;SDS011;27178;49.460;10.850;2023-05-14T05:24:02;6.38;;;5.80;;
41436;SDS011;27178;49.460;10.850;2023-05-14T05:26:30;6.40;;;5.80;;
41436;SDS011;27178;49.460;10.850;2023-05-14T05:28:59;7.18;;;6.55;;
41436;SDS011;27178;49.460;10.850;2023-05-14T05:31:27;6.63;;;6.13;;
41436;SDS011;27178;49.460;10.850;2023-05-14T05:33:56;6.43;;;5.93;;
41436;SDS011;27178;49.460;10.850;2023-05-14T05:36:25;6.22;;;5.63;;
41436;SDS011;27178;49.460;10.850;2023-05-14T05:38:55;6.43;;;5.93;;
41436;SDS011;27178;49.460;10.850;2023-05-14T05:41:24;6.68;;;5.75;;
41436;SDS011;27178;49.460;10.850;2023-05-14T05:43:53;6.70;;;6.20;;
41436;SDS011;27178;49.460;10.850;2023-05-14T05:46:21;6.50;;;5.90;;
41436;SDS011;27178;49.460;10.850;2023-05-14T05:48:49;7.25;;;6.50;;
41436;SDS011;27178;49.460;10.850;2023-05-14T05:51:18;6.10;;;5.60;;
41436;SDS011;27178;49.460;10.850;2023-05-14T05:53:47;6.32;;;5.82;;
41436;SDS011;27178;49.460;10.850;2023-05-14T05:56:15;6.45;;;5.93;;
41436;SDS011;27178;49.460;10.850;2023-05-14T05:58:44;6.20;;;5.70;;
41436;SDS011;27178;49.460;10.850;2023-05-14T06:01:13;6.55;;;6.05;;
41436;SDS011;27178;49.460;10.850;2023-05-14T06:03:41;6.00;;;5.50;;
41436;SDS011;27178;49.460;10.850;2023-05-14T06:06:12;6.28;;;5.68;;
41436;SDS011;27178;49.460;10.850;2023-05-14T06:08:41;5.78;;;5.28;;
41436;SDS011;27178;49.460;10.850;2023-05-14T06:11:09;5.90;;;5.40;;
41436;SDS011;27178;49.460;10.850;2023-05-14T06:13:37;6.68;;;6.18;;
41436;SDS011;27178;49.460;10.850;2023-05-14T06:16:07;5.95;;;5.47;;
41436;SDS011;27178;49.460;10.850;2023-05-14T06:18:36;6.50;;;5.90;;
41436;SDS011;27178;49.460;10.850;2023-05-14T06:21:04;6.45;;;5.95;;
41436;SDS011;27178;49.460;10.850;2023-05-14T06:23:33;5.72;;;5.32;;
41436;SDS011;27178;49.460;10.850;2023-05-14T06:26:01;8.57;;;5.90;;
41436;SDS011;27178;49.460;10.850;2023-05-14T06:28:30;6.03;;;5.45;;
41436;SDS011;27178;49.460;10.850;2023-05-14T06:30:58;6.20;;;5.70;;
41436;SDS011;27178;49.460;10.850;2023-05-14T06:33:27;6.00;;;5.50;;
41436;SDS011;27178;49.460;10.850;2023-05-14T06:35:57;6.53;;;6.03;;
41436;SDS011;27178;49.460;10.850;2023-05-14T06:38:26;6.70;;;5.93;;
41436;SDS011;27178;49.460;10.850;2023-05-14T06:40:54;6.57;;;5.97;;
41436;SDS011;27178;49.460;10.850;2023-05-14T06:43:22;6.43;;;5.90;;
41436;SDS011;27178;49.460;10.850;2023-05-14T06:45:51;6.75;;;6.15;;
41436;SDS011;27178;49.460;10.850;2023-05-14T06:48:20;6.25;;;5.75;;
41436;SDS011;27178;49.460;10.850;2023-05-14T06:50:50;7.32;;;6.63;;
41436;SDS011;27178;49.460;10.850;2023-05-14T06:53:18;6.78;;;6.20;;
41436;SDS011;27178;49.460;10.850;2023-05-14T06:55:46;6.70;;;6.00;;
41436;SDS011;27178;49.460;10.850;2023-05-14T06:58:14;6.25;;;5.65;;
41436;SDS011;27178;49.460;10.850;2023-05-14T07:00:42;5.97;;;5.43;;
41436;SDS011;27178;49.460;10.850;2023-05-14T07:03:11;5.97;;;5.25;;
41436;SDS011;27178;49.460;10.850;2023-05-14T07:05:40;5.63;;;5.18;;
41436;SDS011;27178;49.460;10.850;2023-05-14T07:08:11;6.50;;;5.88;;
41436;SDS011;27178;49.460;10.850;2023-05-14T07:10:39;6.43;;;5.63;;
41436;SDS011;27178;49.460;10.850;2023-05-14T07:13:08;6.28;;;5.68;;
41436;SDS011;27178;49.460;10.850;2023-05-14T07:15:36;5.93;;;5.43;;
41436;SDS011;27178;49.460;10.850;2023-05-14T07:18:04;6.00;;;5.50;;
41436;SDS011;27178;49.460;10.850;2023-05-14T07:20:33;6.28;;;5.65;;
41436;SDS011;27178;49.460;10.850;2023-05-14T07:23:02;5.93;;;5.43;;
41436;SDS011;27178;49.460;10.850;2023-05-14T07:25:32;6.15;;;5.65;;
41436;SDS011;27178;49.460;10.850;2023-05-14T07:28:00;6.07;;;5.47;;
41436;SDS011;27178;49.460;10.850;2023-05-14T07:30:28;6.07;;;5.57;;
41436;SDS011;27178;49.460;10.850;2023-05-14T07:32:56;7.20;;;5.28;;
41436;SDS011;27178;49.460;10.850;2023-05-14T07:35:24;5.75;;;5.28;;
41436;SDS011;27178;49.460;10.850;2023-05-14T07:37:53;5.90;;;5.40;;
41436;SDS011;27178;49.460;10.850;2023-05-14T07:40:22;5.18;;;4.63;;
41436;SDS011;27178;49.460;10.850;2023-05-14T07:42:52;5.68;;;5.18;;
41436;SDS011;27178;49.460;10.850;2023-05-14T07:45:20;5.80;;;5.30;;
41436;SDS011;27178;49.460;10.850;2023-05-14T07:47:48;5.88;;;5.32;;
41436;SDS011;27178;49.460;10.850;2023-05-14T07:50:18;5.43;;;4.93;;
41436;SDS011;27178;49.460;10.850;2023-05-14T07:52:46;5.97;;;5.47;;
41436;SDS011;27178;49.460;10.850;2023-05-14T07:55:15;5.50;;;5.00;;
41436;SDS011;27178;49.460;10.850;2023-05-14T07:57:43;5.72;;;5.22;;
41436;SDS011;27178;49.460;10.850;2023-05-14T08:00:13;5.43;;;4.95;;
41436;SDS011;27178;49.460;10.850;2023-05-14T08:02:43;6.07;;;5.47;;
41436;SDS011;27178;49.460;10.850;2023-05-14T08:05:11;6.53;;;5.88;;
41436;SDS011;27178;49.460;10.850;2023-05-14T08:07:39;6.10;;;5.55;;
41436;SDS011;27178;49.460;10.850;2023-05-14T08:10:08;5.32;;;4.88;;
41436;SDS011;27178;49.460;10.850;2023-05-14T08:12:37;5.65;;;5.20;;
41436;SDS011;27178;49.460;10.850;2023-05-14T08:15:07;5.15;;;4.75;;
41436;SDS011;27178;49.460;10.850;2023-05-14T08:17:38;5.50;;;5.03;;
41436;SDS011;27178;49.460;10.850;2023-05-14T08:20:07;5.60;;;4.90;;
41436;SDS011;27178;49.460;10.850;2023-05-14T08:22:37;6.15;;;4.97;;
41436;SDS011;27178;49.460;10.850;2023-05-14T08:25:05;7.40;;;4.53;;
41436;SDS011;27178;49.460;10.850;2023-05-14T08:27:34;5.70;;;5.10;;
41436;SDS011;27178;49.460;10.850;2023-05-14T08:30:02;5.07;;;4.68;;
41436;SDS011;27178;49.460;10.850;2023-05-14T08:32:32;5.05;;;4.60;;
41436;SDS011;27178;49.460;10.850;2023-05-14T08:35:02;4.57;;;4.18;;
41436;SDS011;27178;49.460;10.850;2023-05-14T08:37:30;5.93;;;5.38;;
41436;SDS011;27178;49.460;10.850;2023-05-14T08:39:59;5.43;;;5.03;;
41436;SDS011;27178;49.460;10.850;2023-05-14T08:42:27;5.35;;;4.85;;
41436;SDS011;27178;49.460;10.850;2023-05-14T08:44:56;5.40;;;4.90;;
41436;SDS011;27178;49.460;10.850;2023-05-14T08:47:27;6.00;;;4.10;;
41436;SDS011;27178;49.460;10.850;2023-05-14T08:50:00;5.22;;;4.72;;
41436;SDS011;27178;49.460;10.850;2023-05-14T08:52:31;11.00;;;4.68;;
41436;SDS011;27178;49.460;10.850;2023-05-14T08:55:01;5.00;;;4.45;;
41436;SDS011;27178;49.460;10.850;2023-05-14T08:57:31;5.55;;;4.60;;
41436;SDS011;27178;49.460;10.850;2023-05-14T09:00:01;4.50;;;4.20;;
41436;SDS011;27178;49.460;10.850;2023-05-14T09:02:33;4.95;;;4.55;;
41436;SDS011;27178;49.460;10.850;2023-05-14T09:05:04;4.07;;;3.78;;
41436;SDS011;27178;49.460;10.850;2023-05-14T09:07:34;4.85;;;4.45;;
41436;SDS011;27178;49.460;10.850;2023-05-14T09:10:03;5.18;;;4.60;;
41436;SDS011;27178;49.460;10.850;2023-05-14T09:12:34;5.03;;;4.53;;
41436;SDS011;27178;49.460;10.850;2023-05-14T09:15:03;5.45;;;4.95;;
41436;SDS011;27178;49.460;10.850;2023-05-14T09:17:32;5.50;;;5.00;;
41436;SDS011;27178;49.460;10.850;2023-05-14T09:20:01;4.78;;;4.38;;
41436;SDS011;27178;49.460;10.850;2023-05-14T09:22:32;5.88;;;5.38;;
41436;SDS011;27178;49.460;10.850;2023-05-14T09:25:02;5.32;;;4.90;;
41436;SDS011;27178;49.460;10.850;2023-05-14T09:27:32;5.50;;;5.00;;
41436;SDS011;27178;49.460;10.850;2023-05-14T09:30:04;5.07;;;4.68;;
41436;SDS011;27178;49.460;10.850;2023-05-14T09:32:38;4.88;;;4.47;;
41436;SDS011;27178;49.460;10.850;2023-05-14T09:35:12;5.82;;;5.32;;
41436;SDS011;27178;49.460;10.850;2023-05-14T09:37:45;5.63;;;5.18;;
41436;SDS011;27178;49.460;10.850;2023-05-14T09:40:15;5.03;;;4.60;;
41436;SDS011;27178;49.460;10.850;2023-05-14T09:42:44;12.10;;;4.60;;
41436;SDS011;27178;49.460;10.850;2023-05-14T09:45:13;5.30;;;4.80;;
41436;SDS011;27178;49.460;10.850;2023-05-14T09:47:42;6.40;;;5.07;;
41436;SDS011;27178;49.460;10.850;2023-05-14T09:50:11;4.68;;;4.28;;
41436;SDS011;27178;49.460;10.850;2023-05-14T09:52:40;5.10;;;4.70;;
41436;SDS011;27178;49.460;10.850;2023-05-14T09:55:10;4.78;;;4.38;;
41436;SDS011;27178;49.460;10.850;2023-05-14T09:57:40;4.88;;;4.47;;
41436;SDS011;27178;49.460;10.850;2023-05-14T10:00:09;4.72;;;4.32;;
41436;SDS011;27178;49.460;10.850;2023-05-14T10:02:38;5.65;;;4.50;;
41436;SDS011;27178;49.460;10.850;2023-05-14T10:05:10;5.90;;;4.88;;
41436;SDS011;27178;49.460;10.850;2023-05-14T10:07:41;4.75;;;4.35;;
41436;SDS011;27178;49.460;10.850;2023-05-14T10:10:17;5.43;;;4.97;;
41436;SDS011;27178;49.460;10.850;2023-05-14T10:12:49;5.05;;;4.55;;
41436;SDS011;27178;49.460;10.850;2023-05-14T10:15:21;4.57;;;4.18;;
41436;SDS011;27178;49.460;10.850;2023-05-14T10:17:54;4.82;;;4.43;;
41436;SDS011;27178;49.460;10.850;2023-05-14T10:20:25;4.93;;;4.43;;
41436;SDS011;27178;49.460;10.850;2023-05-14T10:22:54;5.05;;;4.65;;
41436;SDS011;27178;49.460;10.850;2023-05-14T10:25:24;4.47;;;4.07;;
41436;SDS011;27178;49.460;10.850;2023-05-14T10:27:53;4.88;;;4.22;;
41436;SDS011;27178;49.460;10.850;2023-05-14T10:30:22;4.75;;;4.35;;
41436;SDS011;27178;49.460;10.850;2023-05-14T10:35:50;5.07;;;4.10;;
41436;SDS011;27178;49.460;10.850;2023-05-14T10:38:27;4.53;;;4.13;;
41436;SDS011;27178;49.460;10.850;2023-05-14T10:40:59;4.60;;;4.20;;
41436;SDS011;27178;49.460;10.850;2023-05-14T10:43:28;4.35;;;4.05;;
41436;SDS011;27178;49.460;10.850;2023-05-14T10:45:58;4.75;;;4.35;;
41436;SDS011;27178;49.460;10.850;2023-05-14T10:48:28;4.05;;;3.75;;
41436;SDS011;27178;49.460;10.850;2023-05-14T10:50:56;4.15;;;3.85;;
41436;SDS011;27178;49.460;10.850;2023-05-14T10:53:32;4.65;;;4.25;;
41436;SDS011;27178;49.460;10.850;2023-05-14T10:56:04;4.22;;;3.92;;
41436;SDS011;27178;49.460;10.850;2023-05-14T10:58:36;4.35;;;3.97;;
41436;SDS011;27178;49.460;10.850;2023-05-14T11:01:05;4.78;;;4.38;;
41436;SDS011;27178;49.460;10.850;2023-05-14T11:03:38;4.72;;;4.32;;
41436;SDS011;27178;49.460;10.850;2023-05-14T11:06:08;4.38;;;3.97;;
41436;SDS011;27178;49.460;10.850;2023-05-14T11:08:38;4.35;;;3.95;;
41436;SDS011;27178;49.460;10.850;2023-05-14T11:11:09;3.97;;;3.67;;
41436;SDS011;27178;49.460;10.850;2023-05-14T11:13:38;4.07;;;3.78;;
41436;SDS011;27178;49.460;10.850;2023-05-14T11:16:07;3.83;;;3.53;;
41436;SDS011;27178;49.460;10.850;2023-05-14T11:18:52;3.97;;;3.67;;
41436;SDS011;27178;49.460;10.850;2023-05-14T11:21:27;4.85;;;4.45;;
41436;SDS011;27178;49.460;10.850;2023-05-14T11:23:55;4.38;;;3.97;;
41436;SDS011;27178;49.460;10.850;2023-05-14T11:26:25;5.22;;;4.72;;
41436;SDS011;27178;49.460;10.850;2023-05-14T11:28:54;4.10;;;3.72;;
41436;SDS011;27178;49.460;10.850;2023-05-14T11:31:22;4.05;;;3.75;;
41436;SDS011;27178;49.460;10.850;2023-05-14T11:33:52;4.28;;;3.90;;
41436;SDS011;27178;49.460;10.850;2023-05-14T11:36:20;4.63;;;4.20;;
41436;SDS011;27178;49.460;10.850;2023-05-14T11:38:48;4.78;;;4.35;;
41436;SDS011;27178;49.460;10.850;2023-05-14T11:41:18;3.90;;;3.60;;
41436;SDS011;27178;49.460;10.850;2023-05-14T11:43:50;4.32;;;4.00;;
41436;SDS011;27178;49.460;10.850;2023-05-14T11:46:18;4.13;;;3.72;;
41436;SDS011;27178;49.460;10.850;2023-05-14T11:48:47;3.83;;;3.35;;
41436;SDS011;27178;49.460;10.850;2023-05-14T11:51:15;4.22;;;3.92;;
41436;SDS011;27178;49.460;10.850;2023-05-14T11:53:44;4.57;;;4.18;;
41436;SDS011;27178;49.460;10.850;2023-05-14T11:56:13;3.92;;;3.63;;
41436;SDS011;27178;49.460;10.850;2023-05-14T11:58:46;3.60;;;3.40;;
41436;SDS011;27178;49.460;10.850;2023-05-14T12:01:16;4.30;;;4.00;;
41436;SDS011;27178;49.460;10.850;2023-05-14T12:03:45;3.53;;;3.22;;
41436;SDS011;27178;49.460;10.850;2023-05-14T12:06:15;3.42;;;3.22;;
41436;SDS011;27178;49.460;10.850;2023-05-14T12:08:46;5.68;;;3.88;;
41436;SDS011;27178;49.460;10.850;2023-05-14T12:11:14;4.10;;;3.67;;
41436;SDS011;27178;49.460;10.850;2023-05-14T12:13:48;4.15;;;3.75;;
41436;SDS011;27178;49.460;10.850;2023-05-14T12:16:19;4.05;;;3.72;;
41436;SDS011;27178;49.460;10.850;2023-05-14T12:18:48;5.55;;;3.50;;
41436;SDS011;27178;49.460;10.850;2023-05-14T12:21:17;3.35;;;3.05;;
41436;SDS011;27178;49.460;10.850;2023-05-14T12:23:45;3.60;;;3.30;;
41436;SDS011;27178;49.460;10.850;2023-05-14T12:26:13;3.53;;;3.22;;
41436;SDS011;27178;49.460;10.850;2023-05-14T12:28:43;4.40;;;3.00;;
41436;SDS011;27178;49.460;10.850;2023-05-14T12:31:14;3.53;;;3.22;;
41436;SDS011;27178;49.460;10.850;2023-05-14T12:33:44;3.55;;;3.25;;
41436;SDS011;27178;49.460;10.850;2023-05-14T12:36:12;3.40;;;3.13;;
41436;SDS011;27178;49.460;10.850;2023-05-14T12:38:45;3.50;;;3.20;;
41436;SDS011;27178;49.460;10.850;2023-05-14T12:41:14;3.17;;;2.97;;
41436;SDS011;27178;49.460;10.850;2023-05-14T12:43:42;4.65;;;3.17;;
41436;SDS011;27178;49.460;10.850;2023-05-14T12:46:11;3.80;;;3.40;;
41436;SDS011;27178;49.460;10.850;2023-05-14T12:48:39;3.70;;;3.40;;
41436;SDS011;27178;49.460;10.850;2023-05-14T12:51:09;3.90;;;3.60;;
41436;SDS011;27178;49.460;10.850;2023-05-14T12:53:37;3.72;;;3.33;;
41436;SDS011;27178;49.460;10.850;2023-05-14T12:56:06;3.35;;;3.15;;
41436;SDS011;27178;49.460;10.850;2023-05-14T12:58:34;3.47;;;3.17;;
41436;SDS011;27178;49.460;10.850;2023-05-14T13:01:03;3.40;;;3.10;;
41436;SDS011;27178;49.460;10.850;2023-05-14T13:03:32;4.05;;;3.10;;
41436;SDS011;27178;49.460;10.850;2023-05-14T13:06:00;3.47;;;3.17;;
41436;SDS011;27178;49.460;10.850;2023-05-14T13:08:30;3.42;;;2.67;;
41436;SDS011;27178;49.460;10.850;2023-05-14T13:10:58;2.83;;;2.63;;
41436;SDS011;27178;49.460;10.850;2023-05-14T13:13:27;3.45;;;3.22;;
41436;SDS011;27178;49.460;10.850;2023-05-14T13:15:55;3.75;;;3.45;;
41436;SDS011;27178;49.460;10.850;2023-05-14T13:18:24;3.03;;;2.83;;
41436;SDS011;27178;49.460;10.850;2023-05-14T13:20:53;3.03;;;2.83;;
41436;SDS011;27178;49.460;10.850;2023-05-14T13:23:21;3.20;;;2.90;;
41436;SDS011;27178;49.460;10.850;2023-05-14T13:25:52;3.10;;;2.90;;
41436;SDS011;27178;49.460;10.850;2023-05-14T13:28:21;3.15;;;2.95;;
41436;SDS011;27178;49.460;10.850;2023-05-14T13:31:03;3.25;;;3.00;;
41436;SDS011;27178;49.460;10.850;2023-05-14T13:33:33;3.42;;;3.13;;
41436;SDS011;27178;49.460;10.850;2023-05-14T13:36:03;3.15;;;2.95;;
41436;SDS011;27178;49.460;10.850;2023-05-14T13:38:31;3.08;;;2.88;;
41436;SDS011;27178;49.460;10.850;2023-05-14T13:41:02;3.20;;;2.97;;
41436;SDS011;27178;49.460;10.850;2023-05-14T13:43:31;3.38;;;3.10;;
41436;SDS011;27178;49.460;10.850;2023-05-14T13:46:01;3.10;;;2.80;;
41436;SDS011;27178;49.460;10.850;2023-05-14T13:48:31;4.13;;;2.88;;
41436;SDS011;27178;49.460;10.850;2023-05-14T13:51:01;3.17;;;2.97;;
41436;SDS011;27178;49.460;10.850;2023-05-14T13:53:30;3.00;;;2.80;;
41436;SDS011;27178;49.460;10.850;2023-05-14T13:55:58;3.28;;;2.97;;
41436;SDS011;27178;49.460;10.850;2023-05-14T13:58:28;2.60;;;2.40;;
41436;SDS011;27178;49.460;10.850;2023-05-14T14:00:57;2.85;;;2.65;;
41436;SDS011;27178;49.460;10.850;2023-05-14T14:03:25;3.67;;;3.38;;
41436;SDS011;27178;49.460;10.850;2023-05-14T14:05:53;3.55;;;3.25;;
41436;SDS011;27178;49.460;10.850;2023-05-14T14:08:22;3.80;;;3.50;;
41436;SDS011;27178;49.460;10.850;2023-05-14T14:10:50;6.43;;;3.58;;
41436;SDS011;27178;49.460;10.850;2023-05-14T14:13:21;3.63;;;3.33;;
41436;SDS011;27178;49.460;10.850;2023-05-14T14:15:51;2.92;;;2.72;;
41436;SDS011;27178;49.460;10.850;2023-05-14T14:18:22;3.70;;;3.40;;
41436;SDS011;27178;49.460;10.850;2023-05-14T14:20:50;3.85;;;3.20;;
41436;SDS011;27178;49.460;10.850;2023-05-14T14:23:18;3.80;;;3.50;;
41436;SDS011;27178;49.460;10.850;2023-05-14T14:25:47;3.15;;;2.90;;
41436;SDS011;27178;49.460;10.850;2023-05-14T14:28:15;3.45;;;3.15;;
41436;SDS011;27178;49.460;10.850;2023-05-14T14:30:44;3.00;;;2.80;;
41436;SDS011;27178;49.460;10.850;2023-05-14T14:33:14;3.25;;;2.53;;
41436;SDS011;27178;49.460;10.850;2023-05-14T14:35:42;2.92;;;2.70;;
41436;SDS011;27178;49.460;10.850;2023-05-14T14:38:11;2.55;;;2.35;;
41436;SDS011;27178;49.460;10.850;2023-05-14T14:40:39;2.70;;;2.50;;
41436;SDS011;27178;49.460;10.850;2023-05-14T14:43:07;2.65;;;2.45;;
41436;SDS011;27178;49.460;10.850;2023-05-14T14:45:35;3.25;;;2.95;;
41436;SDS011;27178;49.460;10.850;2023-05-14T14:48:22;5.50;;;5.00;;